Time;durP1;ratioP1;P1;durP2;ratioP2;P2;SDS_P1;SDS_P2;PMS_P1;PMS_P2;Temp;Humidity;BMP_temperature;BMP_pressure;BME280_temperature;BME280_humidity;BME280_pressure;Samples;Min_cycle;Max_cycle;Signal;HPM_P1;HPM_P2
2021/07/29 00:01:50;;;;;;;;;3.67;2.00;;;;;;;;5038511;27;45410;-78
2021/07/29 00:04:15;;;;;;;;;4.33;1.00;;;;;;;;5037811;28;46111;-77
2021/07/29 00:06:40;;;;;;;;;2.00;2.00;;;;;;;;5033209;27;45539;-77
2021/07/29 00:09:05;;;;;;;;;1.00;1.00;;;;;;;;5027236;28;45499;-77
2021/07/29 00:11:31;;;;;;;;;3.00;1.67;;;;;;;;5039260;27;45572;-78
2021/07/29 00:14:01;;;;;;;;;2.25;1.00;;;;;;;;5036909;27;46108;-78
2021/07/29 00:16:28;;;;;;;;;4.00;2.00;;;;;;;;5045009;28;45567;-77
2021/07/29 00:19:04;;;;;;;;;2.00;2.00;;;;;;;;5033088;27;45590;-78
2021/07/29 00:21:30;;;;;;;;;2.75;2.50;;;;;;;;5030649;27;45508;-78
2021/07/29 00:23:55;;;;;;;;;3.00;1.50;;;;;;;;5019477;27;46012;-78
2021/07/29 00:26:21;;;;;;;;;3.00;3.00;;;;;;;;5035398;27;45532;-78
2021/07/29 00:28:46;;;;;;;;;2.00;1.33;;;;;;;;5020696;27;45390;-77
2021/07/29 00:31:11;;;;;;;;;2.00;2.00;;;;;;;;5019844;28;45433;-76
2021/07/29 00:33:36;;;;;;;;;2.00;2.00;;;;;;;;5016575;27;46080;-78
2021/07/29 00:36:02;;;;;;;;;2.25;2.25;;;;;;;;5017061;27;45348;-78
2021/07/29 00:38:27;;;;;;;;;3.00;2.00;;;;;;;;5042357;27;45497;-78
2021/07/29 00:40:52;;;;;;;;;2.00;2.00;;;;;;;;5043023;27;45425;-78
2021/07/29 00:43:17;;;;;;;;;4.33;3.67;;;;;;;;5037528;28;46145;-78
2021/07/29 00:45:44;;;;;;;;;2.67;2.00;;;;;;;;5033740;27;45382;-78
2021/07/29 00:48:10;;;;;;;;;2.00;2.00;;;;;;;;5034500;27;45755;-77
2021/07/29 00:50:35;;;;;;;;;2.00;2.00;;;;;;;;5019360;27;45671;-78
2021/07/29 00:53:01;;;;;;;;;4.00;2.75;;;;;;;;5034825;27;45496;-77
2021/07/29 00:55:27;;;;;;;;;3.50;2.25;;;;;;;;5038583;28;45236;-77
2021/07/29 00:57:53;;;;;;;;;3.25;3.25;;;;;;;;5035707;27;45533;-77
2021/07/29 01:00:19;;;;;;;;;4.00;3.00;;;;;;;;5034653;27;45718;-78
2021/07/29 01:02:44;;;;;;;;;3.00;3.00;;;;;;;;5019473;27;47044;-77
2021/07/29 01:05:10;;;;;;;;;3.25;3.25;;;;;;;;5034525;28;45404;-78
2021/07/29 01:07:35;;;;;;;;;2.75;2.00;;;;;;;;5040232;28;45486;-78
2021/07/29 01:10:00;;;;;;;;;2.25;2.25;;;;;;;;5042016;27;45398;-76
2021/07/29 01:12:26;;;;;;;;;3.00;2.00;;;;;;;;5018575;27;49050;-78
2021/07/29 01:14:51;;;;;;;;;3.00;2.33;;;;;;;;5032518;27;45381;-78
2021/07/29 01:17:16;;;;;;;;;3.00;3.00;;;;;;;;5013521;27;45627;-77
2021/07/29 01:19:41;;;;;;;;;2.00;2.00;;;;;;;;5036839;27;45339;-78
2021/07/29 01:22:06;;;;;;;;;3.00;3.00;;;;;;;;5018787;27;48424;-78
2021/07/29 01:24:32;;;;;;;;;5.67;2.00;;;;;;;;5035723;27;45449;-78
2021/07/29 01:26:57;;;;;;;;;2.00;2.00;;;;;;;;5039480;27;45665;-76
2021/07/29 01:29:22;;;;;;;;;4.67;2.00;;;;;;;;5041852;27;45430;-78
2021/07/29 01:31:47;;;;;;;;;2.00;2.00;;;;;;;;5036098;27;45646;-78
2021/07/29 01:34:13;;;;;;;;;2.00;2.00;;;;;;;;5033404;28;45496;-78
2021/07/29 01:36:38;;;;;;;;;2.00;2.00;;;;;;;;5039447;27;45549;-78
2021/07/29 01:39:04;;;;;;;;;4.25;3.00;;;;;;;;5019391;28;45426;-78
2021/07/29 01:41:29;;;;;;;;;3.75;3.00;;;;;;;;5025356;27;45437;-77
2021/07/29 01:43:55;;;;;;;;;2.25;2.00;;;;;;;;5039806;27;45511;-78
2021/07/29 01:46:20;;;;;;;;;4.75;3.50;;;;;;;;5039251;28;45437;-78
2021/07/29 01:48:45;;;;;;;;;3.50;2.50;;;;;;;;5038236;27;45532;-78
2021/07/29 01:51:10;;;;;;;;;3.00;3.00;;;;;;;;5040730;27;46157;-78
2021/07/29 01:53:35;;;;;;;;;2.00;2.00;;;;;;;;5052197;28;45774;-78
2021/07/29 01:56:01;;;;;;;;;3.67;3.00;;;;;;;;5043072;27;45420;-77
2021/07/29 01:58:26;;;;;;;;;3.33;3.00;;;;;;;;5035885;28;45520;-78
2021/07/29 02:00:53;;;;;;;;;2.00;2.00;;;;;;;;5045845;28;45444;-78
2021/07/29 02:03:18;;;;;;;;;2.00;2.00;;;;;;;;5046239;27;45527;-77
2021/07/29 02:05:43;;;;;;;;;5.00;3.00;;;;;;;;5032850;28;45357;-78
2021/07/29 02:08:08;;;;;;;;;5.00;3.00;;;;;;;;5019427;28;45339;-76
2021/07/29 02:10:34;;;;;;;;;4.00;3.50;;;;;;;;5051118;28;46214;-78
2021/07/29 02:13:00;;;;;;;;;3.00;3.00;;;;;;;;5040945;27;45325;-78
2021/07/29 02:15:25;;;;;;;;;2.00;2.00;;;;;;;;5024196;27;45387;-77
2021/07/29 02:17:54;;;;;;;;;5.25;1.75;;;;;;;;5042350;27;45486;-78
2021/07/29 02:20:19;;;;;;;;;5.00;3.00;;;;;;;;5027141;27;46558;-78
2021/07/29 02:22:44;;;;;;;;;4.00;3.00;;;;;;;;5021187;28;45543;-78
2021/07/29 02:25:12;;;;;;;;;2.67;2.00;;;;;;;;5037941;28;45493;-78
2021/07/29 02:27:37;;;;;;;;;2.25;2.00;;;;;;;;5038015;27;51071;-77
2021/07/29 02:30:02;;;;;;;;;3.00;3.00;;;;;;;;5037285;27;46209;-78
2021/07/29 02:32:27;;;;;;;;;2.50;2.50;;;;;;;;5040351;27;45976;-78
2021/07/29 02:34:53;;;;;;;;;2.00;2.00;;;;;;;;5020875;27;45303;-77
2021/07/29 02:37:21;;;;;;;;;5.75;2.50;;;;;;;;5029369;27;45520;-76
2021/07/29 02:39:46;;;;;;;;;3.00;2.25;;;;;;;;5019203;27;48491;-76
2021/07/29 02:42:11;;;;;;;;;2.75;2.25;;;;;;;;5043585;27;45596;-78
2021/07/29 02:44:36;;;;;;;;;3.00;2.00;;;;;;;;5039320;27;45503;-78
2021/07/29 02:47:02;;;;;;;;;3.67;2.67;;;;;;;;5040853;27;45821;-78
2021/07/29 02:49:27;;;;;;;;;3.75;2.00;;;;;;;;5037434;28;46092;-77
2021/07/29 02:51:52;;;;;;;;;2.33;2.33;;;;;;;;5026938;27;45472;-77
2021/07/29 02:54:18;;;;;;;;;3.00;3.00;;;;;;;;5035316;27;45487;-78
2021/07/29 02:56:43;;;;;;;;;2.50;2.00;;;;;;;;5038766;27;45500;-78
2021/07/29 02:59:08;;;;;;;;;5.00;3.00;;;;;;;;5041098;27;45450;-78
2021/07/29 03:01:33;;;;;;;;;3.00;3.00;;;;;;;;5048145;28;45526;-78
2021/07/29 03:03:58;;;;;;;;;3.75;3.00;;;;;;;;5047818;27;45627;-78
2021/07/29 03:06:24;;;;;;;;;2.33;2.33;;;;;;;;5035519;27;45472;-78
2021/07/29 03:08:49;;;;;;;;;4.00;3.00;;;;;;;;5038123;28;45481;-77
2021/07/29 03:11:14;;;;;;;;;2.00;2.00;;;;;;;;5039596;27;45438;-78
2021/07/29 03:13:39;;;;;;;;;2.67;2.67;;;;;;;;5046776;28;45429;-78
2021/07/29 03:16:05;;;;;;;;;3.67;2.33;;;;;;;;5027181;28;45522;-78
2021/07/29 03:18:30;;;;;;;;;3.00;2.00;;;;;;;;5036198;27;45987;-78
2021/07/29 03:20:55;;;;;;;;;3.67;3.00;;;;;;;;5036869;28;45513;-78
2021/07/29 03:23:21;;;;;;;;;5.67;3.00;;;;;;;;5038939;28;45494;-77
2021/07/29 03:25:47;;;;;;;;;3.00;2.25;;;;;;;;5021997;27;45573;-78
2021/07/29 03:28:12;;;;;;;;;3.00;3.00;;;;;;;;5031863;28;45492;-78
2021/07/29 03:30:38;;;;;;;;;3.67;2.67;;;;;;;;5033865;27;45306;-77
2021/07/29 03:33:05;;;;;;;;;2.00;2.00;;;;;;;;5020085;27;46666;-78
2021/07/29 03:35:30;;;;;;;;;3.75;2.50;;;;;;;;5035992;27;45522;-78
2021/07/29 03:37:55;;;;;;;;;2.00;2.00;;;;;;;;5038366;27;45882;-78
2021/07/29 03:40:20;;;;;;;;;3.75;2.25;;;;;;;;5036923;28;45527;-76
2021/07/29 03:42:46;;;;;;;;;5.33;3.00;;;;;;;;5036281;27;45540;-78
2021/07/29 03:45:12;;;;;;;;;3.33;3.00;;;;;;;;5016793;27;45531;-78
2021/07/29 03:47:37;;;;;;;;;2.50;2.50;;;;;;;;5040162;27;48967;-78
2021/07/29 03:50:02;;;;;;;;;5.00;2.00;;;;;;;;5018644;27;45529;-78
2021/07/29 03:52:28;;;;;;;;;1.50;1.00;;;;;;;;5021448;28;45680;-78
2021/07/29 03:54:53;;;;;;;;;3.00;2.00;;;;;;;;5035318;27;45799;-78
2021/07/29 03:57:19;;;;;;;;;4.33;3.00;;;;;;;;5036751;27;46094;-78
2021/07/29 03:59:44;;;;;;;;;3.25;3.25;;;;;;;;5042544;27;45355;-77
2021/07/29 04:02:10;;;;;;;;;3.00;2.67;;;;;;;;5037692;27;45425;-77
2021/07/29 04:04:38;;;;;;;;;3.25;2.00;;;;;;;;5038837;28;45519;-77
2021/07/29 04:07:04;;;;;;;;;3.50;3.00;;;;;;;;5015828;27;48307;-79
2021/07/29 04:09:29;;;;;;;;;4.00;2.00;;;;;;;;5031245;27;45471;-78
2021/07/29 04:11:54;;;;;;;;;4.50;2.50;;;;;;;;5040545;27;45394;-78
2021/07/29 04:14:20;;;;;;;;;3.00;3.00;;;;;;;;5038069;27;45303;-77
2021/07/29 04:16:45;;;;;;;;;5.00;3.00;;;;;;;;5036945;27;45611;-78
2021/07/29 04:19:10;;;;;;;;;2.00;2.00;;;;;;;;5037682;28;45530;-78
2021/07/29 04:21:35;;;;;;;;;3.00;2.00;;;;;;;;5036315;27;45789;-77
2021/07/29 04:24:00;;;;;;;;;2.00;1.67;;;;;;;;5035616;27;45514;-77
2021/07/29 04:26:26;;;;;;;;;2.00;2.00;;;;;;;;5045495;28;47445;-78
2021/07/29 04:28:51;;;;;;;;;2.00;2.00;;;;;;;;5037325;27;45632;-77
2021/07/29 04:31:16;;;;;;;;;2.67;2.33;;;;;;;;5024127;28;45384;-77
2021/07/29 04:33:41;;;;;;;;;4.33;2.00;;;;;;;;5017224;27;45548;-78
2021/07/29 04:36:07;;;;;;;;;1.67;1.67;;;;;;;;5032747;27;45765;-78
2021/07/29 04:38:33;;;;;;;;;4.50;3.00;;;;;;;;5016558;27;45598;-78
2021/07/29 04:41:05;;;;;;;;;3.00;3.00;;;;;;;;5020728;27;45549;-78
2021/07/29 04:43:31;;;;;;;;;2.75;2.00;;;;;;;;5025845;28;45494;-77
2021/07/29 04:45:59;;;;;;;;;3.00;3.00;;;;;;;;5041964;27;46145;-76
2021/07/29 04:48:24;;;;;;;;;2.75;2.25;;;;;;;;5038831;27;45442;-79
2021/07/29 04:50:49;;;;;;;;;6.33;3.33;;;;;;;;5043752;27;45956;-78
2021/07/29 04:53:15;;;;;;;;;2.00;2.00;;;;;;;;5037426;27;45446;-76
2021/07/29 04:55:40;;;;;;;;;5.00;3.00;;;;;;;;5035788;27;46176;-78
2021/07/29 04:58:06;;;;;;;;;4.00;4.00;;;;;;;;5050761;28;45911;-78
2021/07/29 05:00:32;;;;;;;;;9.25;2.75;;;;;;;;5021381;27;45490;-76
2021/07/29 05:02:57;;;;;;;;;5.50;4.00;;;;;;;;5021837;27;46154;-76
2021/07/29 05:05:23;;;;;;;;;3.00;2.67;;;;;;;;5022354;27;45436;-76
2021/07/29 05:07:54;;;;;;;;;4.33;2.33;;;;;;;;5039474;27;45508;-78
2021/07/29 05:10:19;;;;;;;;;3.00;2.00;;;;;;;;5037182;28;45518;-78
2021/07/29 05:12:45;;;;;;;;;3.00;2.00;;;;;;;;5015794;27;45554;-78
2021/07/29 05:15:10;;;;;;;;;5.00;3.00;;;;;;;;5019321;28;48189;-78
2021/07/29 05:17:35;;;;;;;;;4.50;2.75;;;;;;;;5034329;27;45422;-78
2021/07/29 05:20:01;;;;;;;;;5.67;4.00;;;;;;;;5017827;27;45363;-78
2021/07/29 05:22:26;;;;;;;;;5.00;2.33;;;;;;;;5020021;27;45545;-78
2021/07/29 05:24:51;;;;;;;;;3.00;3.00;;;;;;;;5038761;27;46357;-77
2021/07/29 05:27:16;;;;;;;;;3.00;3.00;;;;;;;;5016382;27;45723;-78
2021/07/29 05:29:41;;;;;;;;;3.25;3.00;;;;;;;;5037706;27;45540;-77
2021/07/29 05:32:07;;;;;;;;;2.00;2.00;;;;;;;;5038477;27;45481;-78
2021/07/29 05:34:33;;;;;;;;;3.75;3.00;;;;;;;;5018223;28;46209;-77
2021/07/29 05:36:58;;;;;;;;;3.50;3.00;;;;;;;;5028595;27;45563;-78
2021/07/29 05:39:23;;;;;;;;;4.00;2.67;;;;;;;;5029461;27;45538;-78
2021/07/29 05:41:48;;;;;;;;;4.67;3.00;;;;;;;;5021612;27;45429;-78
2021/07/29 05:44:13;;;;;;;;;3.00;2.00;;;;;;;;5032094;27;46750;-78
2021/07/29 05:46:39;;;;;;;;;5.00;2.00;;;;;;;;5031209;28;45271;-78
2021/07/29 05:49:04;;;;;;;;;2.00;2.00;;;;;;;;5036099;27;45484;-78
2021/07/29 05:51:29;;;;;;;;;6.75;4.75;;;;;;;;5039855;27;45572;-77
2021/07/29 05:53:54;;;;;;;;;3.33;3.00;;;;;;;;5019847;27;47125;-77
2021/07/29 05:56:20;;;;;;;;;4.67;3.00;;;;;;;;5019611;27;45359;-78
2021/07/29 05:58:45;;;;;;;;;4.00;2.00;;;;;;;;5036312;27;45458;-78
2021/07/29 06:01:10;;;;;;;;;3.33;2.00;;;;;;;;5023052;28;45396;-78
2021/07/29 06:03:35;;;;;;;;;3.33;3.33;;;;;;;;5032604;27;45470;-77
2021/07/29 06:06:01;;;;;;;;;3.00;3.00;;;;;;;;5042787;27;45572;-77
2021/07/29 06:08:26;;;;;;;;;2.67;1.00;;;;;;;;5031612;27;45538;-77
2021/07/29 06:10:51;;;;;;;;;2.67;2.67;;;;;;;;5031261;27;45368;-78
2021/07/29 06:13:16;;;;;;;;;3.00;3.00;;;;;;;;5031896;28;45334;-77
2021/07/29 06:15:42;;;;;;;;;4.67;3.00;;;;;;;;5011484;28;45862;-78
2021/07/29 06:18:10;;;;;;;;;5.00;3.00;;;;;;;;5031818;27;45498;-78
2021/07/29 06:20:36;;;;;;;;;4.75;2.00;;;;;;;;5034678;27;45408;-78
2021/07/29 06:23:01;;;;;;;;;3.00;3.00;;;;;;;;5036684;27;46158;-78
2021/07/29 06:25:26;;;;;;;;;3.00;3.00;;;;;;;;5033874;28;45461;-78
2021/07/29 06:27:52;;;;;;;;;4.00;3.00;;;;;;;;5032860;27;45328;-78
2021/07/29 06:30:17;;;;;;;;;3.00;2.00;;;;;;;;5032764;27;45484;-79
2021/07/29 06:32:43;;;;;;;;;2.75;2.75;;;;;;;;5040709;27;45251;-78
2021/07/29 06:35:08;;;;;;;;;1.25;1.25;;;;;;;;5035122;27;45657;-78
2021/07/29 06:37:34;;;;;;;;;2.25;2.25;;;;;;;;5016287;28;45346;-79
2021/07/29 06:39:59;;;;;;;;;3.75;2.50;;;;;;;;5033896;28;45548;-79
2021/07/29 06:42:24;;;;;;;;;4.00;2.50;;;;;;;;5030764;27;45240;-78
2021/07/29 06:44:50;;;;;;;;;3.00;3.00;;;;;;;;5037145;27;45231;-78
2021/07/29 06:47:18;;;;;;;;;3.00;2.00;;;;;;;;5034596;28;45602;-78
2021/07/29 06:49:43;;;;;;;;;5.00;3.00;;;;;;;;5033820;27;45528;-79
2021/07/29 06:52:10;;;;;;;;;4.33;3.00;;;;;;;;5033869;28;45504;-78
2021/07/29 06:54:36;;;;;;;;;3.00;3.00;;;;;;;;5031050;27;45781;-78
2021/07/29 06:57:01;;;;;;;;;3.00;3.00;;;;;;;;5017328;27;45627;-78
2021/07/29 06:59:26;;;;;;;;;5.33;3.00;;;;;;;;5049951;28;45259;-78
2021/07/29 07:01:51;;;;;;;;;3.67;2.67;;;;;;;;5033702;27;46317;-78
2021/07/29 07:04:16;;;;;;;;;3.25;3.25;;;;;;;;5034576;28;45425;-78
2021/07/29 07:06:42;;;;;;;;;6.00;2.67;;;;;;;;5031115;27;45618;-78
2021/07/29 07:09:07;;;;;;;;;3.50;3.50;;;;;;;;5041633;27;46006;-78
2021/07/29 07:11:32;;;;;;;;;4.33;3.00;;;;;;;;5034029;27;46027;-78
2021/07/29 07:13:57;;;;;;;;;4.00;4.00;;;;;;;;5017352;28;45419;-78
2021/07/29 07:16:23;;;;;;;;;5.00;3.00;;;;;;;;5018082;28;45491;-78
2021/07/29 07:18:48;;;;;;;;;6.33;2.33;;;;;;;;5033578;27;45634;-78
2021/07/29 07:21:13;;;;;;;;;3.00;3.00;;;;;;;;5014445;27;46194;-77
2021/07/29 07:23:40;;;;;;;;;2.00;2.00;;;;;;;;5038230;27;45401;-78
2021/07/29 07:26:06;;;;;;;;;1.75;1.75;;;;;;;;5049978;28;45402;-78
2021/07/29 07:28:31;;;;;;;;;2.50;2.50;;;;;;;;5033351;28;45414;-78
2021/07/29 07:30:57;;;;;;;;;3.25;2.00;;;;;;;;5017584;27;47127;-80
2021/07/29 07:33:22;;;;;;;;;4.67;3.00;;;;;;;;5022590;27;45545;-77
2021/07/29 07:35:49;;;;;;;;;5.00;2.00;;;;;;;;5036590;27;45576;-79
2021/07/29 07:38:14;;;;;;;;;3.00;3.00;;;;;;;;5031987;27;45634;-78
2021/07/29 07:40:39;;;;;;;;;5.00;3.00;;;;;;;;5040072;27;45947;-78
2021/07/29 07:43:05;;;;;;;;;3.67;2.00;;;;;;;;5037641;27;45744;-78
2021/07/29 07:45:30;;;;;;;;;4.00;4.00;;;;;;;;5036896;27;45417;-79
2021/07/29 07:47:55;;;;;;;;;5.00;3.67;;;;;;;;5039577;27;45394;-79
2021/07/29 07:50:21;;;;;;;;;3.25;3.25;;;;;;;;5026895;27;46520;-79
2021/07/29 07:52:46;;;;;;;;;3.00;3.00;;;;;;;;5068214;27;45503;-78
2021/07/29 07:55:11;;;;;;;;;4.33;4.00;;;;;;;;5058193;27;45415;-78
2021/07/29 07:57:36;;;;;;;;;4.00;4.00;;;;;;;;5049370;27;45758;-79
2021/07/29 08:00:02;;;;;;;;;3.00;3.00;;;;;;;;5055316;27;45893;-78
2021/07/29 08:02:27;;;;;;;;;2.00;2.00;;;;;;;;5047174;27;45507;-78
2021/07/29 08:04:53;;;;;;;;;3.00;3.00;;;;;;;;5064836;27;45575;-78
2021/07/29 08:07:18;;;;;;;;;5.00;2.00;;;;;;;;5057366;27;45501;-79
2021/07/29 08:09:43;;;;;;;;;3.00;3.00;;;;;;;;5047438;27;48267;-79
2021/07/29 08:12:08;;;;;;;;;3.67;2.00;;;;;;;;5043832;27;45580;-78
2021/07/29 08:14:34;;;;;;;;;2.50;2.50;;;;;;;;5035902;27;45423;-78
2021/07/29 08:16:59;;;;;;;;;2.50;2.00;;;;;;;;5028294;27;45877;-79
2021/07/29 08:19:25;;;;;;;;;4.00;2.00;;;;;;;;5023058;28;45904;-82
2021/07/29 08:21:51;;;;;;;;;1.25;1.25;;;;;;;;5025433;28;45937;-79
2021/07/29 08:24:16;;;;;;;;;1.00;1.00;;;;;;;;5025545;28;45488;-79
2021/07/29 08:26:41;;;;;;;;;1.67;1.67;;;;;;;;5018367;27;45458;-80
2021/07/29 08:29:07;;;;;;;;;3.00;1.75;;;;;;;;5035484;27;46985;-79
2021/07/29 08:31:32;;;;;;;;;3.67;2.00;;;;;;;;5014303;27;45556;-79
2021/07/29 08:33:57;;;;;;;;;1.00;1.00;;;;;;;;5038778;27;45767;-78
2021/07/29 08:36:22;;;;;;;;;2.00;2.00;;;;;;;;5015572;27;45351;-79
2021/07/29 08:38:49;;;;;;;;;2.00;2.00;;;;;;;;5052319;28;48151;-79
2021/07/29 08:41:15;;;;;;;;;1.25;1.25;;;;;;;;5015131;27;45528;-79
2021/07/29 08:43:41;;;;;;;;;4.25;2.00;;;;;;;;5028854;27;45840;-79
2021/07/29 08:46:10;;;;;;;;;2.33;2.00;;;;;;;;5049993;28;45443;-78
2021/07/29 08:48:42;;;;;;;;;3.00;2.00;;;;;;;;5015134;28;47361;-79
2021/07/29 08:51:08;;;;;;;;;5.00;2.00;;;;;;;;5051558;27;45867;-84
2021/07/29 08:53:33;;;;;;;;;3.00;3.00;;;;;;;;5054986;27;45253;-79
2021/07/29 08:55:58;;;;;;;;;3.67;2.00;;;;;;;;5021878;27;50663;-78
2021/07/29 08:58:24;;;;;;;;;2.33;1.67;;;;;;;;5025943;28;45962;-79
2021/07/29 09:00:59;;;;;;;;;1.50;1.50;;;;;;;;5031715;27;45502;-80
2021/07/29 09:03:26;;;;;;;;;1.00;1.00;;;;;;;;5011762;27;45531;-80
2021/07/29 09:06:02;;;;;;;;;3.00;1.00;;;;;;;;5039792;27;45648;-79
2021/07/29 09:08:27;;;;;;;;;1.75;1.75;;;;;;;;5048474;27;46256;-79
2021/07/29 09:10:53;;;;;;;;;3.00;2.00;;;;;;;;5018846;27;45512;-79
2021/07/29 09:13:18;;;;;;;;;3.33;3.00;;;;;;;;5021299;27;45436;-79
2021/07/29 09:15:44;;;;;;;;;2.00;2.00;;;;;;;;5028116;27;45474;-78
2021/07/29 09:18:10;;;;;;;;;2.50;1.50;;;;;;;;5017618;27;47284;-78
2021/07/29 09:20:36;;;;;;;;;2.00;2.00;;;;;;;;5055309;27;45378;-78
2021/07/29 09:23:12;;;;;;;;;2.00;2.00;;;;;;;;5018711;27;45381;-79
2021/07/29 09:25:37;;;;;;;;;1.25;1.25;;;;;;;;5034066;28;45482;-79
2021/07/29 09:28:04;;;;;;;;;1.00;1.00;;;;;;;;5028691;27;45293;-79
2021/07/29 09:30:33;;;;;;;;;5.25;1.50;;;;;;;;5040078;27;48872;-79
2021/07/29 09:33:06;;;;;;;;;1.25;1.25;;;;;;;;5013994;27;45437;-79
2021/07/29 09:35:57;;;;;;;;;3.75;2.50;;;;;;;;5053560;28;45615;-78
2021/07/29 09:38:27;;;;;;;;;1.50;1.50;;;;;;;;5040722;27;45445;-81
2021/07/29 09:40:56;;;;;;;;;3.00;2.00;;;;;;;;5036543;27;46033;-79
2021/07/29 09:43:23;;;;;;;;;4.00;3.00;;;;;;;;5026106;28;46649;-79
2021/07/29 09:45:50;;;;;;;;;1.50;1.00;;;;;;;;5038740;27;45429;-80
2021/07/29 09:48:17;;;;;;;;;1.00;1.00;;;;;;;;5035888;27;45464;-79
2021/07/29 09:50:42;;;;;;;;;2.00;2.00;;;;;;;;5046447;28;45727;-79
2021/07/29 09:53:08;;;;;;;;;1.75;1.75;;;;;;;;5031645;27;45501;-80
2021/07/29 09:55:34;;;;;;;;;1.50;1.00;;;;;;;;5031835;28;45308;-80
2021/07/29 09:57:59;;;;;;;;;2.00;1.00;;;;;;;;5033386;27;45499;-79
2021/07/29 10:00:25;;;;;;;;;1.75;1.75;;;;;;;;5030818;27;45507;-80
2021/07/29 10:02:50;;;;;;;;;1.33;1.00;;;;;;;;5036819;27;45448;-79
2021/07/29 10:05:17;;;;;;;;;4.25;1.50;;;;;;;;5034255;27;46528;-80
2021/07/29 10:07:45;;;;;;;;;3.25;2.00;;;;;;;;5034558;27;45476;-80
2021/07/29 10:10:11;;;;;;;;;3.00;1.75;;;;;;;;5025936;27;45681;-79
2021/07/29 10:12:36;;;;;;;;;2.50;2.00;;;;;;;;5045579;27;45392;-79
2021/07/29 10:15:03;;;;;;;;;1.00;1.00;;;;;;;;5035249;28;45655;-79
2021/07/29 10:17:34;;;;;;;;;1.75;1.75;;;;;;;;5031194;27;45615;-79
2021/07/29 10:20:11;;;;;;;;;1.25;1.00;;;;;;;;5033811;27;45293;-80
2021/07/29 10:22:37;;;;;;;;;1.00;1.00;;;;;;;;5034645;28;45564;-80
2021/07/29 10:25:02;;;;;;;;;1.25;1.25;;;;;;;;5033568;27;45664;-80
2021/07/29 10:27:28;;;;;;;;;3.00;1.75;;;;;;;;5029850;27;45512;-80
2021/07/29 10:30:02;;;;;;;;;4.67;1.00;;;;;;;;5036969;28;45482;-79
2021/07/29 10:33:00;;;;;;;;;2.00;2.00;;;;;;;;5065485;27;45405;-79
2021/07/29 10:35:25;;;;;;;;;3.25;2.00;;;;;;;;5031158;28;45396;-80
2021/07/29 10:37:53;;;;;;;;;2.67;1.00;;;;;;;;5046446;28;48736;-80
2021/07/29 10:40:30;;;;;;;;;1.50;1.00;;;;;;;;5047210;28;45577;-78
2021/07/29 10:42:55;;;;;;;;;1.75;1.75;;;;;;;;5030304;28;45566;-79
2021/07/29 10:45:41;;;;;;;;;3.00;1.75;;;;;;;;5028000;28;45432;-80
2021/07/29 10:48:06;;;;;;;;;2.00;1.00;;;;;;;;5010455;28;47642;-80
2021/07/29 10:50:31;;;;;;;;;2.25;2.00;;;;;;;;5026796;28;45524;-79
2021/07/29 10:52:56;;;;;;;;;3.00;1.00;;;;;;;;5033292;28;45610;-79
2021/07/29 10:55:22;;;;;;;;;1.25;1.25;;;;;;;;5052135;28;47332;-80
2021/07/29 10:57:57;;;;;;;;;2.00;2.00;;;;;;;;5048814;28;48039;-79
2021/07/29 11:00:22;;;;;;;;;3.75;2.00;;;;;;;;5037888;28;45356;-80
2021/07/29 11:02:50;;;;;;;;;1.00;1.00;;;;;;;;5032452;28;45407;-80
2021/07/29 11:05:22;;;;;;;;;1.00;0.75;;;;;;;;5046892;28;45421;-80
2021/07/29 11:07:48;;;;;;;;;2.00;2.00;;;;;;;;5028279;28;45684;-80
2021/07/29 11:10:16;;;;;;;;;2.00;2.00;;;;;;;;5047682;28;45588;-79
2021/07/29 11:12:41;;;;;;;;;1.00;1.00;;;;;;;;5029479;27;45507;-80
2021/07/29 11:15:08;;;;;;;;;2.50;2.50;;;;;;;;5033117;28;45444;-81
2021/07/29 11:17:33;;;;;;;;;2.00;0.75;;;;;;;;5031120;27;45819;-81
2021/07/29 11:19:58;;;;;;;;;2.67;1.33;;;;;;;;5051897;27;46684;-81
2021/07/29 11:22:23;;;;;;;;;2.00;2.00;;;;;;;;5034686;28;45412;-80
2021/07/29 11:24:49;;;;;;;;;1.00;1.00;;;;;;;;5019029;27;45507;-81
2021/07/29 11:27:14;;;;;;;;;2.00;2.00;;;;;;;;5015208;27;47687;-79
2021/07/29 11:29:52;;;;;;;;;1.00;1.00;;;;;;;;5037954;27;45393;-80
2021/07/29 11:32:18;;;;;;;;;1.75;1.75;;;;;;;;5033100;28;45464;-79
2021/07/29 11:34:43;;;;;;;;;3.00;1.75;;;;;;;;5040351;27;45570;-80
2021/07/29 11:37:09;;;;;;;;;4.75;1.00;;;;;;;;5041204;28;46080;-80
2021/07/29 11:39:35;;;;;;;;;1.75;1.75;;;;;;;;5021599;28;45827;-80
2021/07/29 11:42:00;;;;;;;;;1.00;1.00;;;;;;;;5041764;27;45540;-80
2021/07/29 11:44:43;;;;;;;;;3.00;1.67;;;;;;;;5037110;27;45725;-80
2021/07/29 11:47:09;;;;;;;;;3.50;2.25;;;;;;;;5039250;27;46510;-80
2021/07/29 11:49:48;;;;;;;;;1.00;1.00;;;;;;;;5036977;28;45567;-80
2021/07/29 11:52:14;;;;;;;;;1.00;1.00;;;;;;;;5039256;28;45471;-80
2021/07/29 11:54:39;;;;;;;;;3.25;2.00;;;;;;;;5034423;27;45607;-79
2021/07/29 11:57:04;;;;;;;;;1.00;1.00;;;;;;;;5036800;27;45627;-79
2021/07/29 11:59:43;;;;;;;;;2.00;2.00;;;;;;;;5038916;27;46458;-80
2021/07/29 12:02:09;;;;;;;;;3.00;1.50;;;;;;;;5055070;27;45432;-79
2021/07/29 12:04:37;;;;;;;;;3.00;2.00;;;;;;;;5055690;27;45531;-80
2021/07/29 12:07:02;;;;;;;;;1.00;1.00;;;;;;;;5006465;27;48464;-79
2021/07/29 12:09:28;;;;;;;;;1.00;1.00;;;;;;;;5040180;27;45647;-80
2021/07/29 12:11:54;;;;;;;;;2.00;1.50;;;;;;;;5030547;27;45384;-80
2021/07/29 12:14:19;;;;;;;;;2.25;2.25;;;;;;;;5036507;28;45662;-81
2021/07/29 12:16:46;;;;;;;;;2.00;1.00;;;;;;;;5035691;27;45845;-81
2021/07/29 12:19:11;;;;;;;;;1.00;1.00;;;;;;;;5017327;28;45591;-81
2021/07/29 12:21:36;;;;;;;;;1.00;1.00;;;;;;;;5035928;27;45499;-80
2021/07/29 12:24:02;;;;;;;;;2.00;1.00;;;;;;;;5042570;27;45638;-81
2021/07/29 12:26:27;;;;;;;;;1.00;1.00;;;;;;;;5040303;27;46108;-81
2021/07/29 12:28:52;;;;;;;;;3.33;0.67;;;;;;;;5027957;27;45599;-81
2021/07/29 12:31:17;;;;;;;;;0.67;0.67;;;;;;;;5041238;28;45530;-81
2021/07/29 12:33:59;;;;;;;;;0.00;0.00;;;;;;;;5008264;27;46049;-80
2021/07/29 12:36:39;;;;;;;;;2.25;1.00;;;;;;;;5040450;27;45437;-80
2021/07/29 12:39:05;;;;;;;;;0.00;0.00;;;;;;;;5024489;27;45752;-81
2021/07/29 12:41:31;;;;;;;;;0.00;0.00;;;;;;;;5020000;27;45579;-80
2021/07/29 12:44:13;;;;;;;;;1.00;1.00;;;;;;;;5036243;28;45535;-81
2021/07/29 12:46:38;;;;;;;;;1.75;0.00;;;;;;;;5036032;28;45565;-80
2021/07/29 12:49:04;;;;;;;;;1.00;1.00;;;;;;;;5022310;27;45572;-79
2021/07/29 12:51:38;;;;;;;;;0.00;0.00;;;;;;;;5015301;27;45472;-81
2021/07/29 12:54:05;;;;;;;;;2.25;1.75;;;;;;;;5041349;27;45506;-80
2021/07/29 12:56:30;;;;;;;;;0.50;0.50;;;;;;;;5028328;27;46528;-79
2021/07/29 12:58:55;;;;;;;;;1.75;0.75;;;;;;;;5022873;27;45546;-81
2021/07/29 13:01:20;;;;;;;;;1.75;1.75;;;;;;;;5043181;27;45520;-80
2021/07/29 13:03:46;;;;;;;;;0.67;0.67;;;;;;;;5048093;27;45473;-81
2021/07/29 13:06:11;;;;;;;;;0.75;0.75;;;;;;;;5032039;27;46098;-80
2021/07/29 13:08:36;;;;;;;;;0.00;0.00;;;;;;;;5041076;27;45474;-81
2021/07/29 13:11:02;;;;;;;;;0.00;0.00;;;;;;;;5020683;27;45637;-80
2021/07/29 13:13:31;;;;;;;;;0.00;0.00;;;;;;;;5026478;27;45487;-82
2021/07/29 13:15:56;;;;;;;;;0.25;0.25;;;;;;;;5028871;27;46732;-81
2021/07/29 13:18:22;;;;;;;;;0.50;0.50;;;;;;;;5022639;27;45879;-81
2021/07/29 13:20:47;;;;;;;;;1.75;0.00;;;;;;;;5019285;27;45301;-82
2021/07/29 13:23:14;;;;;;;;;0.75;0.75;;;;;;;;5024196;27;45478;-81
2021/07/29 13:25:40;;;;;;;;;0.25;0.25;;;;;;;;5028828;27;46188;-82
2021/07/29 13:28:05;;;;;;;;;0.25;0.00;;;;;;;;5051965;27;45563;-80
2021/07/29 13:30:30;;;;;;;;;0.00;0.00;;;;;;;;5019276;27;45470;-80
2021/07/29 13:32:56;;;;;;;;;0.00;0.00;;;;;;;;5046714;27;45476;-81
2021/07/29 13:35:21;;;;;;;;;1.00;1.00;;;;;;;;5047782;27;46592;-82
2021/07/29 13:37:46;;;;;;;;;4.33;0.00;;;;;;;;5023760;27;45622;-81
2021/07/29 13:40:11;;;;;;;;;0.00;0.00;;;;;;;;5020498;27;45409;-81
2021/07/29 13:42:37;;;;;;;;;1.00;1.00;;;;;;;;5030181;27;45424;-81
2021/07/29 13:45:20;;;;;;;;;0.00;0.00;;;;;;;;5032348;27;45830;-82
2021/07/29 13:47:49;;;;;;;;;0.00;0.00;;;;;;;;5039936;27;45399;-82
2021/07/29 13:50:15;;;;;;;;;0.00;0.00;;;;;;;;5020518;27;46158;-82
2021/07/29 13:52:41;;;;;;;;;0.25;0.00;;;;;;;;5034574;27;45507;-82
2021/07/29 13:55:06;;;;;;;;;0.00;0.00;;;;;;;;5025126;27;46599;-82
2021/07/29 13:57:32;;;;;;;;;0.00;0.00;;;;;;;;5051465;27;45573;-81
2021/07/29 13:59:57;;;;;;;;;0.00;0.00;;;;;;;;5025518;27;45468;-81
2021/07/29 14:02:22;;;;;;;;;0.00;0.00;;;;;;;;5025125;27;45908;-81
2021/07/29 14:04:48;;;;;;;;;0.75;0.00;;;;;;;;5033098;27;45569;-81
2021/07/29 14:07:13;;;;;;;;;1.25;0.25;;;;;;;;5027713;28;45492;-82
2021/07/29 14:09:39;;;;;;;;;0.67;0.67;;;;;;;;5011567;27;45430;-84
2021/07/29 14:12:05;;;;;;;;;1.00;0.50;;;;;;;;5035400;27;45530;-81
2021/07/29 14:14:30;;;;;;;;;0.00;0.00;;;;;;;;5039684;28;45554;-81
2021/07/29 14:16:56;;;;;;;;;2.67;1.33;;;;;;;;5043365;27;45479;-83
2021/07/29 14:19:37;;;;;;;;;0.75;0.75;;;;;;;;5015856;27;45342;-79
2021/07/29 14:24:36;;;;;;;;;0.75;0.75;;;;;;;;5021077;27;46159;-81
2021/07/29 14:27:02;;;;;;;;;3.67;1.00;;;;;;;;5023932;27;45352;-80
2021/07/29 14:29:27;;;;;;;;;1.75;1.75;;;;;;;;5004559;27;45707;-80
2021/07/29 14:31:52;;;;;;;;;1.75;1.75;;;;;;;;5021399;27;45556;-80
2021/07/29 14:34:17;;;;;;;;;1.25;1.00;;;;;;;;5020403;28;46003;-79
2021/07/29 14:36:43;;;;;;;;;1.00;1.00;;;;;;;;5013793;27;45600;-80
2021/07/29 14:39:08;;;;;;;;;1.75;1.00;;;;;;;;5037181;27;45356;-80
2021/07/29 14:41:33;;;;;;;;;2.00;2.00;;;;;;;;5033302;27;49022;-80